Time;durP1;ratioP1;P1;durP2;ratioP2;P2;SDS_P1;SDS_P2;PMS_P1;PMS_P2;Temp;Humidity;BMP_temperature;BMP_pressure;BME280_temperature;BME280_humidity;BME280_pressure;Samples;Min_cycle;Max_cycle;Signal;HPM_P1;HPM_P2
2022/05/22 00:01:16;;;;;;;10.35;3.95;;;14.40;99.90;;;;;;5104331;28;20237;-80
2022/05/22 00:03:47;;;;;;;12.80;5.22;;;14.40;99.90;;;;;;5101993;28;20639;-80
2022/05/22 00:06:18;;;;;;;9.73;4.50;;;14.40;99.90;;;;;;5103888;28;20189;-79
2022/05/22 00:08:48;;;;;;;11.85;4.88;;;14.40;99.90;;;;;;5109942;28;20635;-79
2022/05/22 00:11:22;;;;;;;9.10;4.75;;;14.40;99.90;;;;;;5105852;28;20199;-79
2022/05/22 00:13:52;;;;;;;7.97;5.50;;;14.40;99.90;;;;;;5105404;28;20631;-79
2022/05/22 00:16:40;;;;;;;12.55;6.45;;;14.40;99.90;;;;;;5106174;28;20184;-79
2022/05/22 00:19:12;;;;;;;10.13;6.40;;;14.50;99.90;;;;;;5104163;28;20190;-79
2022/05/22 00:21:43;;;;;;;13.18;6.68;;;14.40;99.90;;;;;;5112321;28;20274;-80
2022/05/22 00:24:16;;;;;;;10.38;5.93;;;14.50;99.90;;;;;;5100088;28;20187;-79
2022/05/22 00:26:48;;;;;;;10.00;6.03;;;14.60;99.90;;;;;;5101929;28;20639;-78
2022/05/22 00:29:20;;;;;;;9.50;5.72;;;14.70;99.90;;;;;;5106252;28;20647;-78
2022/05/22 00:31:51;;;;;;;8.57;6.03;;;14.70;99.90;;;;;;5103414;28;20244;-78
2022/05/22 00:34:22;;;;;;;8.98;6.05;;;14.70;99.90;;;;;;5107295;28;20249;-78
2022/05/22 00:36:53;;;;;;;9.68;5.82;;;14.70;99.90;;;;;;5102139;28;20524;-78
2022/05/22 00:39:23;;;;;;;10.40;6.15;;;14.70;99.90;;;;;;5105322;28;20605;-79
2022/05/22 00:41:58;;;;;;;13.10;7.30;;;14.80;99.90;;;;;;5103713;28;20297;-78
2022/05/22 00:44:28;;;;;;;9.40;6.40;;;14.80;99.90;;;;;;5106113;28;20639;-78
2022/05/22 00:46:59;;;;;;;12.68;7.13;;;14.70;99.90;;;;;;5096120;28;20224;-78
2022/05/22 00:49:34;;;;;;;11.77;7.07;;;14.80;99.90;;;;;;5104146;28;20216;-78
2022/05/22 00:52:09;;;;;;;10.20;7.07;;;14.90;99.90;;;;;;5106470;28;20263;-78
2022/05/22 00:54:44;;;;;;;13.77;8.38;;;14.90;99.90;;;;;;5103969;28;20188;-78
2022/05/22 00:57:20;;;;;;;15.02;8.15;;;14.90;99.90;;;;;;5098890;28;20244;-78
2022/05/22 00:59:56;;;;;;;15.85;9.00;;;14.90;99.90;;;;;;5103441;28;20688;-77
2022/05/22 01:02:27;;;;;;;14.48;8.07;;;15.00;99.90;;;;;;5097194;28;20180;-78
2022/05/22 01:04:58;;;;;;;14.38;9.25;;;15.00;99.90;;;;;;5104252;28;20184;-77
2022/05/22 01:07:29;;;;;;;14.50;9.10;;;15.10;99.90;;;;;;5101674;28;20191;-78
2022/05/22 01:09:59;;;;;;;15.35;9.27;;;15.10;99.90;;;;;;5107648;28;20212;-77
2022/05/22 01:12:32;;;;;;;16.98;9.73;;;15.10;99.90;;;;;;5100770;28;20644;-77
2022/05/22 01:15:03;;;;;;;12.18;8.73;;;15.20;99.90;;;;;;5096837;28;20253;-77
2022/05/22 01:17:40;;;;;;;14.38;9.30;;;15.20;99.90;;;;;;5093987;28;20188;-77
2022/05/22 01:20:11;;;;;;;15.57;9.13;;;15.20;99.90;;;;;;5099217;28;20703;-77
2022/05/22 01:22:44;;;;;;;16.83;9.93;;;15.30;99.90;;;;;;5098319;28;20184;-77
2022/05/22 01:25:15;;;;;;;17.35;9.23;;;15.40;99.90;;;;;;5109266;28;20593;-77
2022/05/22 01:27:46;;;;;;;14.93;8.80;;;15.50;99.90;;;;;;5097467;28;20237;-78
2022/05/22 01:30:19;;;;;;;14.05;8.25;;;15.60;99.90;;;;;;5104076;28;20219;-77
2022/05/22 01:32:51;;;;;;;16.02;8.30;;;15.60;99.90;;;;;;5101260;28;20240;-78
2022/05/22 01:35:25;;;;;;;13.43;6.80;;;15.50;99.90;;;;;;5105142;28;20192;-78
2022/05/22 01:37:58;;;;;;;12.70;5.95;;;15.60;99.90;;;;;;5104545;28;20192;-77
2022/05/22 01:40:29;;;;;;;12.02;5.35;;;15.60;99.90;;;;;;5105471;28;20591;-78
2022/05/22 01:42:59;;;;;;;9.55;5.15;;;15.60;99.90;;;;;;5103729;28;20185;-77
2022/05/22 01:45:30;;;;;;;10.23;5.35;;;15.60;99.90;;;;;;5102949;28;20686;-77
2022/05/22 01:48:01;;;;;;;12.20;5.32;;;15.60;99.90;;;;;;5106161;28;20195;-77
2022/05/22 01:50:33;;;;;;;10.90;5.72;;;15.60;99.90;;;;;;5097111;28;20678;-78
2022/05/22 01:53:05;;;;;;;9.98;4.60;;;15.70;99.90;;;;;;5097775;28;20220;-78
2022/05/22 01:55:36;;;;;;;7.65;4.18;;;15.70;99.90;;;;;;5095565;28;20663;-77
2022/05/22 01:58:07;;;;;;;8.10;4.35;;;15.80;99.90;;;;;;5096134;28;20254;-77
2022/05/22 02:00:39;;;;;;;7.43;3.90;;;15.80;99.90;;;;;;5103603;28;20180;-79
2022/05/22 02:03:10;;;;;;;8.43;3.80;;;15.80;99.90;;;;;;5098071;28;20564;-79
2022/05/22 02:05:43;;;;;;;13.85;4.85;;;15.90;99.90;;;;;;5102649;28;20195;-79
2022/05/22 02:08:22;;;;;;;12.82;3.95;;;15.90;99.90;;;;;;5097236;28;20199;-78
2022/05/22 02:10:54;;;;;;;7.65;3.47;;;15.90;99.90;;;;;;5093921;28;20691;-79
2022/05/22 02:13:26;;;;;;;9.50;3.58;;;16.00;99.90;;;;;;5099321;28;20195;-79
2022/05/22 02:15:57;;;;;;;6.43;3.30;;;16.00;99.90;;;;;;5092528;28;20193;-81
2022/05/22 02:18:28;;;;;;;5.28;3.35;;;16.10;99.90;;;;;;5099068;28;20188;-79
2022/05/22 02:20:59;;;;;;;6.78;2.90;;;16.10;99.90;;;;;;5101749;28;20199;-79
2022/05/22 02:23:33;;;;;;;8.07;2.90;;;16.10;99.90;;;;;;5100290;28;20197;-79
2022/05/22 02:26:04;;;;;;;5.32;1.48;;;16.20;99.90;;;;;;5099568;28;20202;-84
2022/05/22 02:28:34;;;;;;;9.75;1.77;;;16.20;99.90;;;;;;5105208;28;20194;-78
2022/05/22 02:42:14;;;;;;;5.53;0.93;;;16.50;99.90;;;;;;5050201;28;20276;-77
2022/05/22 02:58:34;;;;;;;6.75;0.70;;;16.70;99.90;;;;;;4974740;28;20616;-76
2022/05/22 03:04:43;;;;;;;8.07;1.00;;;16.80;99.90;;;;;;5016257;28;20195;-77
2022/05/22 03:07:36;;;;;;;3.50;0.90;;;16.80;99.90;;;;;;5001529;28;20206;-77
2022/05/22 03:27:10;;;;;;;4.47;0.85;;;17.40;99.90;;;;;;4968959;28;20619;-77
2022/05/22 03:39:57;;;;;;;4.30;1.02;;;17.70;99.90;;;;;;4973241;28;20208;-83
2022/05/22 04:00:02;;;;;;;4.22;0.70;;;18.20;99.90;;;;;;4883252;29;20887;-79
2022/05/22 04:06:14;;;;;;;4.50;0.60;;;18.20;99.90;;;;;;4885198;29;20237;-79
2022/05/22 04:09:46;;;;;;;3.78;0.70;;;18.20;99.90;;;;;;4909125;29;20757;-82
2022/05/22 04:15:34;;;;;;;2.63;0.80;;;18.30;99.90;;;;;;4935087;29;20204;-78
2022/05/22 04:29:06;;;;;;;2.22;0.50;;;18.10;99.90;;;;;;5018156;28;20209;-78
2022/05/22 04:35:23;;;;;;;3.65;0.70;;;18.00;99.90;;;;;;4987455;28;20206;-78
2022/05/22 04:39:06;;;;;;;9.45;1.00;;;17.90;99.90;;;;;;5028752;28;20190;-78
2022/05/22 04:55:05;;;;;;;2.47;0.60;;;17.70;99.90;;;;;;4986730;28;20207;-79
2022/05/22 05:01:43;;;;;;;2.47;0.52;;;17.70;99.90;;;;;;4942043;29;20201;-81
2022/05/22 05:11:21;;;;;;;3.30;0.40;;;17.70;99.90;;;;;;4902692;29;20312;-81
2022/05/22 05:38:30;;;;;;;3.05;0.50;;;17.50;99.90;;;;;;5024097;22;20257;-86
2022/05/22 05:41:02;;;;;;;1.60;0.45;;;17.40;99.90;;;;;;5025517;28;20209;-88
2022/05/22 05:43:32;;;;;;;0.85;0.50;;;17.30;99.90;;;;;;5028044;28;20208;-91
2022/05/22 05:46:03;;;;;;;1.33;0.70;;;17.30;99.90;;;;;;5027812;28;20657;-87
2022/05/22 05:48:34;;;;;;;0.70;0.50;;;17.20;99.90;;;;;;5031541;28;20202;-88
2022/05/22 05:51:04;;;;;;;2.22;0.80;;;17.20;99.90;;;;;;5030558;28;20218;-88
2022/05/22 05:53:37;;;;;;;2.95;0.70;;;17.10;99.90;;;;;;5030490;28;20202;-85
2022/05/22 05:56:09;;;;;;;0.98;0.52;;;17.10;99.90;;;;;;5035988;28;20606;-86
2022/05/22 05:58:39;;;;;;;3.00;0.73;;;17.10;99.90;;;;;;5028787;28;20190;-90
2022/05/22 06:01:11;;;;;;;1.67;0.60;;;17.10;99.90;;;;;;5028226;28;20221;-90
2022/05/22 06:03:42;;;;;;;3.92;0.70;;;17.00;99.90;;;;;;5024292;28;20202;-86
2022/05/22 06:06:15;;;;;;;2.67;0.60;;;17.10;99.90;;;;;;5029290;28;20205;-86
2022/05/22 06:08:48;;;;;;;3.17;0.65;;;17.10;99.90;;;;;;5017289;28;20183;-85
2022/05/22 06:11:19;;;;;;;3.17;0.88;;;17.10;99.90;;;;;;5030698;28;20229;-86
2022/05/22 06:13:50;;;;;;;3.13;0.95;;;17.00;99.90;;;;;;5021589;28;20194;-85
2022/05/22 06:16:20;;;;;;;3.72;0.85;;;17.10;99.90;;;;;;5029699;28;20581;-87
2022/05/22 06:18:51;;;;;;;2.97;0.80;;;17.00;99.90;;;;;;5024901;28;20202;-87
2022/05/22 06:21:23;;;;;;;2.72;0.80;;;17.00;99.90;;;;;;5031915;28;20197;-87
2022/05/22 06:23:56;;;;;;;3.30;0.80;;;17.00;99.90;;;;;;5024766;28;20191;-87
2022/05/22 06:26:26;;;;;;;3.13;1.15;;;16.90;99.90;;;;;;5030851;28;20194;-86
2022/05/22 06:28:57;;;;;;;6.35;1.10;;;16.90;99.90;;;;;;5032822;28;20183;-87
2022/05/22 06:31:31;;;;;;;4.35;0.80;;;16.80;99.90;;;;;;5029469;28;20222;-86
2022/05/22 06:34:02;;;;;;;2.25;0.80;;;16.90;99.90;;;;;;5031792;28;20273;-87
2022/05/22 06:36:33;;;;;;;3.45;0.90;;;16.80;99.90;;;;;;5031497;28;20195;-85
2022/05/22 06:41:52;;;;;;;3.15;1.10;;;16.80;99.90;;;;;;5031159;28;20212;-87
2022/05/22 06:44:23;;;;;;;3.15;1.35;;;16.80;99.90;;;;;;5027540;28;20533;-87
2022/05/22 06:46:53;;;;;;;4.30;0.93;;;16.80;99.90;;;;;;5026835;28;20215;-85
2022/05/22 06:49:24;;;;;;;2.53;0.80;;;16.70;99.90;;;;;;5024163;28;20659;-87
2022/05/22 06:51:56;;;;;;;4.75;1.10;;;16.70;99.90;;;;;;5027939;28;20214;-88
2022/05/22 06:54:30;;;;;;;7.13;1.13;;;16.70;99.90;;;;;;5032087;28;20599;-86
2022/05/22 06:57:00;;;;;;;4.97;1.67;;;16.70;99.90;;;;;;5034445;28;20292;-85
2022/05/22 06:59:31;;;;;;;2.97;0.80;;;16.60;99.90;;;;;;5033399;28;20205;-85
2022/05/22 07:02:04;;;;;;;3.40;0.80;;;16.60;99.90;;;;;;5028332;28;20194;-86
2022/05/22 07:04:35;;;;;;;3.33;0.85;;;16.60;99.90;;;;;;5032002;28;20594;-87
2022/05/22 07:07:06;;;;;;;4.28;1.02;;;16.60;99.90;;;;;;5033864;28;20202;-86
2022/05/22 07:09:39;;;;;;;6.57;0.88;;;16.50;99.90;;;;;;5034629;28;20202;-86
2022/05/22 07:12:11;;;;;;;2.85;0.70;;;16.50;99.90;;;;;;5035312;28;20214;-85
2022/05/22 07:14:42;;;;;;;3.03;0.73;;;16.40;99.90;;;;;;5035754;28;20209;-85
2022/05/22 07:17:14;;;;;;;4.18;0.70;;;16.40;99.90;;;;;;5033464;28;20196;-85
2022/05/22 07:19:45;;;;;;;1.73;0.60;;;16.30;99.90;;;;;;5029134;28;20213;-86
2022/05/22 07:22:16;;;;;;;1.70;0.70;;;16.30;99.90;;;;;;5033101;28;20217;-86
2022/05/22 07:24:48;;;;;;;2.97;0.70;;;16.20;99.90;;;;;;5031806;28;20841;-85
2022/05/22 07:27:20;;;;;;;3.08;0.70;;;16.20;99.90;;;;;;5027286;28;20201;-87
2022/05/22 07:29:50;;;;;;;5.45;0.60;;;16.10;99.90;;;;;;5034353;28;20207;-86
2022/05/22 07:32:21;;;;;;;2.17;0.70;;;16.10;99.90;;;;;;5033844;28;20715;-87
2022/05/22 07:34:52;;;;;;;2.83;0.77;;;16.10;99.90;;;;;;5034024;28;20198;-86
2022/05/22 07:37:22;;;;;;;3.08;0.70;;;16.10;99.90;;;;;;5029186;28;20234;-85
2022/05/22 07:39:55;;;;;;;2.28;0.90;;;16.00;99.90;;;;;;5033259;28;20198;-86
2022/05/22 07:42:25;;;;;;;3.20;0.70;;;16.00;99.90;;;;;;5034216;28;20191;-84
2022/05/22 07:44:56;;;;;;;3.83;0.80;;;16.00;99.90;;;;;;5031415;28;20202;-87
2022/05/22 07:47:27;;;;;;;1.77;0.75;;;15.90;99.90;;;;;;5036680;28;20208;-85
2022/05/22 07:52:44;;;;;;;3.00;0.90;;;15.90;99.90;;;;;;5029640;28;20224;-85
2022/05/22 07:55:18;;;;;;;5.35;1.10;;;15.90;99.90;;;;;;5033502;28;20198;-86
2022/05/22 07:57:50;;;;;;;4.43;1.00;;;15.90;99.90;;;;;;5034551;28;20225;-85
2022/05/22 08:00:23;;;;;;;2.90;0.80;;;15.80;99.90;;;;;;5024322;28;20290;-85
2022/05/22 08:02:53;;;;;;;3.90;0.80;;;15.80;99.90;;;;;;5033596;28;20198;-85
2022/05/22 08:05:24;;;;;;;3.10;0.88;;;15.80;99.90;;;;;;5027858;28;20197;-86
2022/05/22 08:07:55;;;;;;;3.97;0.93;;;15.80;99.90;;;;;;5031781;28;20548;-84
2022/05/22 08:10:28;;;;;;;6.40;1.20;;;15.80;99.90;;;;;;5033387;28;20213;-86
2022/05/22 08:12:58;;;;;;;7.07;1.13;;;15.70;99.90;;;;;;5035642;28;20357;-85
2022/05/22 08:15:30;;;;;;;3.50;0.90;;;15.70;99.90;;;;;;5032606;28;20609;-86
2022/05/22 08:18:01;;;;;;;6.13;0.90;;;15.60;99.90;;;;;;5024948;28;20555;-83
2022/05/22 08:20:33;;;;;;;2.65;0.98;;;15.70;99.90;;;;;;5033543;28;20198;-82
2022/05/22 08:23:08;;;;;;;6.43;1.00;;;15.60;99.90;;;;;;5026701;28;20202;-84
2022/05/22 08:25:40;;;;;;;2.47;0.75;;;15.60;99.90;;;;;;5025649;28;20190;-85
2022/05/22 08:28:11;;;;;;;3.53;0.70;;;15.60;99.90;;;;;;5023810;28;20191;-84
2022/05/22 08:30:42;;;;;;;2.30;0.70;;;15.60;99.90;;;;;;5029234;28;20799;-83
2022/05/22 08:33:13;;;;;;;1.85;0.73;;;15.50;99.90;;;;;;5033254;28;20677;-84
2022/05/22 08:35:45;;;;;;;2.40;0.77;;;15.50;99.90;;;;;;5030384;28;20245;-83
2022/05/22 08:38:16;;;;;;;3.08;0.80;;;15.50;99.90;;;;;;5029758;28;20284;-82
2022/05/22 08:40:56;;;;;;;2.58;0.70;;;15.50;99.90;;;;;;5027257;28;20206;-84
2022/05/22 08:43:35;;;;;;;4.13;0.70;;;15.50;99.90;;;;;;5033970;28;20728;-84
2022/05/22 08:46:13;;;;;;;3.42;0.90;;;15.50;99.90;;;;;;5026164;28;20281;-82
2022/05/22 08:48:49;;;;;;;2.35;0.60;;;15.50;99.90;;;;;;5030627;28;20244;-84
2022/05/22 08:51:22;;;;;;;2.30;0.70;;;15.50;99.90;;;;;;5033424;28;20205;-83
2022/05/22 08:53:56;;;;;;;1.33;0.50;;;15.50;99.90;;;;;;5028401;28;20653;-84
2022/05/22 08:59:30;;;;;;;3.25;0.70;;;15.50;99.90;;;;;;5033696;28;20210;-86
2022/05/22 09:02:22;;;;;;;0.90;0.50;;;15.50;99.90;;;;;;5030787;28;20285;-83
2022/05/22 09:04:58;;;;;;;1.77;0.55;;;15.40;99.90;;;;;;5031947;28;20190;-83
2022/05/22 09:07:53;;;;;;;3.20;0.70;;;15.40;99.90;;;;;;5033466;28;20252;-80
2022/05/22 09:10:27;;;;;;;3.00;0.50;;;15.40;99.90;;;;;;5031116;28;20202;-83
2022/05/22 09:13:25;;;;;;;1.70;0.68;;;15.40;99.90;;;;;;5030108;28;20741;-84
2022/05/22 09:16:05;;;;;;;3.67;0.90;;;15.40;99.90;;;;;;5030409;28;20198;-83
2022/05/22 09:18:39;;;;;;;1.75;0.52;;;15.40;99.90;;;;;;5028292;28;20218;-82
2022/05/22 09:21:21;;;;;;;1.20;0.60;;;15.30;99.90;;;;;;5030141;28;20198;-83
2022/05/22 09:24:03;;;;;;;2.60;0.43;;;15.30;99.90;;;;;;5028727;28;20191;-84
2022/05/22 09:26:47;;;;;;;3.25;0.57;;;15.30;99.90;;;;;;5031105;28;20260;-83
2022/05/22 09:29:37;;;;;;;1.45;0.50;;;15.20;99.90;;;;;;5030626;28;20228;-85
2022/05/22 09:32:29;;;;;;;0.70;0.50;;;15.30;99.90;;;;;;5030570;28;20218;-84
2022/05/22 09:35:10;;;;;;;0.77;0.52;;;15.20;99.90;;;;;;5029413;28;20198;-85
2022/05/22 09:37:49;;;;;;;2.40;0.50;;;15.20;99.90;;;;;;5032342;28;20237;-89
2022/05/22 09:40:28;;;;;;;0.50;0.50;;;15.10;99.90;;;;;;5026132;28;20202;-92
2022/05/22 09:43:18;;;;;;;1.73;0.40;;;15.10;99.90;;;;;;5030769;28;20198;-85
2022/05/22 09:46:05;;;;;;;1.13;0.77;;;15.10;99.90;;;;;;5029498;28;20281;-86
2022/05/22 09:48:59;;;;;;;2.80;0.90;;;15.10;99.90;;;;;;5031880;28;20206;-84
2022/05/22 09:51:41;;;;;;;2.17;0.82;;;15.10;99.90;;;;;;5028059;28;20191;-87
2022/05/22 09:54:31;;;;;;;2.58;0.65;;;15.10;99.90;;;;;;5026319;28;20600;-87
2022/05/22 09:57:14;;;;;;;2.78;0.73;;;15.10;99.90;;;;;;5031778;28;20252;-87
2022/05/22 09:59:58;;;;;;;1.42;0.75;;;15.00;99.90;;;;;;5025825;28;20198;-86
2022/05/22 10:02:40;;;;;;;3.88;0.70;;;15.00;99.90;;;;;;5029091;28;20572;-86
2022/05/22 10:05:18;;;;;;;1.67;0.70;;;15.00;99.90;;;;;;5033271;28;20652;-88
2022/05/22 10:07:56;;;;;;;1.13;0.60;;;15.00;99.90;;;;;;5030972;28;20194;-85
2022/05/22 10:10:33;;;;;;;2.83;0.73;;;15.10;99.90;;;;;;5032634;28;20202;-82
2022/05/22 10:13:14;;;;;;;1.13;0.63;;;15.10;99.90;;;;;;5021039;28;20957;-87
2022/05/22 10:15:55;;;;;;;2.88;0.80;;;15.10;99.90;;;;;;5033121;28;20183;-89
2022/05/22 10:18:47;;;;;;;1.67;0.70;;;15.10;99.90;;;;;;5025372;28;20203;-85
2022/05/22 10:21:25;;;;;;;1.23;0.60;;;15.00;99.90;;;;;;5032224;28;20209;-90
2022/05/22 10:24:16;;;;;;;1.60;0.80;;;14.90;99.90;;;;;;5032294;28;20244;-88
2022/05/22 10:27:01;;;;;;;2.25;0.63;;;14.90;99.90;;;;;;5024401;28;20198;-85
2022/05/22 10:29:40;;;;;;;3.97;1.00;;;14.90;99.90;;;;;;5029972;28;20190;-87
2022/05/22 10:32:16;;;;;;;3.08;0.70;;;14.90;99.90;;;;;;5031318;28;20241;-87
2022/05/22 10:34:55;;;;;;;3.55;0.90;;;14.90;99.90;;;;;;5031316;28;20247;-87
2022/05/22 10:37:32;;;;;;;4.70;1.00;;;14.80;99.90;;;;;;5023040;28;20712;-91
2022/05/22 10:40:06;;;;;;;1.92;0.57;;;14.80;99.90;;;;;;5029661;28;20201;-88
2022/05/22 10:42:49;;;;;;;2.40;0.65;;;14.70;99.90;;;;;;5030817;28;20205;-87
2022/05/22 10:45:32;;;;;;;2.15;0.60;;;14.70;99.90;;;;;;5031133;28;20190;-86
2022/05/22 10:48:12;;;;;;;2.50;0.60;;;14.70;99.90;;;;;;5027064;28;20205;-86
2022/05/22 10:51:00;;;;;;;3.22;0.80;;;14.70;99.90;;;;;;5008550;28;20194;-86
2022/05/22 10:53:38;;;;;;;3.88;0.63;;;14.60;99.90;;;;;;5011561;28;20214;-86
2022/05/22 10:56:20;;;;;;;1.25;0.60;;;14.70;99.90;;;;;;5011907;28;20550;-85
2022/05/22 10:58:56;;;;;;;1.63;0.60;;;14.60;99.90;;;;;;5011575;28;20218;-86
2022/05/22 11:01:29;;;;;;;2.22;0.40;;;14.70;99.90;;;;;;5008918;28;20603;-86
2022/05/22 11:04:10;;;;;;;2.08;0.65;;;14.60;99.90;;;;;;5006187;28;20199;-85
2022/05/22 11:06:59;;;;;;;1.65;0.60;;;14.60;99.90;;;;;;5010727;28;20610;-87
2022/05/22 11:09:30;;;;;;;2.78;0.73;;;14.60;99.90;;;;;;5004021;28;20278;-88
2022/05/22 11:12:09;;;;;;;0.80;0.50;;;14.60;99.90;;;;;;5007560;28;20571;-85
2022/05/22 11:14:41;;;;;;;3.25;0.82;;;14.50;99.90;;;;;;5010996;28;20195;-88
2022/05/22 11:17:16;;;;;;;1.63;0.65;;;14.50;99.90;;;;;;5011684;28;20214;-88
2022/05/22 11:19:49;;;;;;;2.53;0.80;;;14.50;99.90;;;;;;5009940;28;20219;-89
2022/05/22 11:22:41;;;;;;;1.88;0.60;;;14.50;99.90;;;;;;5011293;28;20561;-87
2022/05/22 11:25:31;;;;;;;1.20;0.68;;;14.50;99.90;;;;;;5008945;28;20195;-88
2022/05/22 11:28:17;;;;;;;3.08;0.70;;;14.50;99.90;;;;;;5008004;28;20246;-86
2022/05/22 11:31:16;;;;;;;3.88;1.00;;;14.40;99.90;;;;;;5008647;28;20202;-87
2022/05/22 11:34:03;;;;;;;1.98;0.73;;;14.40;99.90;;;;;;5007701;28;20222;-88
2022/05/22 11:36:46;;;;;;;2.05;0.60;;;14.40;99.90;;;;;;5009155;28;20195;-87
2022/05/22 11:40:03;;;;;;;1.58;0.68;;;14.30;99.90;;;;;;5009058;28;20234;-86
2022/05/22 11:42:39;;;;;;;2.13;0.63;;;14.30;99.90;;;;;;4969460;28;20205;-88
2022/05/22 11:45:21;;;;;;;2.35;0.68;;;14.30;99.90;;;;;;5002430;28;20206;-87
2022/05/22 11:48:13;;;;;;;3.80;0.82;;;14.30;99.90;;;;;;5011093;28;20195;-88
2022/05/22 11:50:51;;;;;;;1.35;0.77;;;14.30;99.90;;;;;;4975659;28;20199;-87
2022/05/22 11:53:51;;;;;;;2.10;0.73;;;14.20;99.90;;;;;;5014471;28;20226;-85
2022/05/22 11:56:34;;;;;;;1.10;0.60;;;14.20;99.90;;;;;;5014158;28;20199;-85
2022/05/22 11:59:21;;;;;;;1.55;0.60;;;14.20;99.90;;;;;;5011092;28;20545;-84
2022/05/22 12:02:01;;;;;;;1.98;0.90;;;14.20;99.90;;;;;;5008403;28;20191;-85
2022/05/22 12:04:59;;;;;;;1.95;1.10;;;14.20;99.90;;;;;;5012123;28;20234;-84
2022/05/22 12:07:59;;;;;;;2.78;1.50;;;14.20;99.90;;;;;;5011074;28;20198;-84
2022/05/22 12:10:34;;;;;;;6.68;4.10;;;14.20;99.90;;;;;;5012229;28;20207;-86
2022/05/22 12:13:13;;;;;;;7.72;3.60;;;14.20;99.90;;;;;;5012741;28;20611;-84
2022/05/22 12:15:52;;;;;;;3.78;2.78;;;14.10;99.90;;;;;;5015329;28;20194;-84
2022/05/22 12:18:53;;;;;;;6.85;4.35;;;14.10;99.90;;;;;;5009620;28;20198;-83
2022/05/22 12:21:33;;;;;;;11.63;7.63;;;14.10;99.90;;;;;;5006664;28;20210;-85
2022/05/22 12:24:09;;;;;;;6.63;4.60;;;14.10;99.90;;;;;;5012304;28;20253;-86
2022/05/22 12:26:41;;;;;;;3.53;2.50;;;14.10;99.90;;;;;;5012873;28;20249;-84
2022/05/22 12:29:14;;;;;;;3.00;1.58;;;14.10;99.90;;;;;;5011980;28;20199;-84
2022/05/22 12:31:55;;;;;;;1.90;1.13;;;14.10;99.90;;;;;;5013295;28;20194;-84
2022/05/22 12:34:35;;;;;;;3.92;1.42;;;14.10;99.90;;;;;;5011148;28;20211;-83
2022/05/22 12:37:08;;;;;;;3.60;1.17;;;14.00;99.90;;;;;;5013619;28;20234;-83
2022/05/22 12:39:46;;;;;;;2.40;0.95;;;14.00;99.90;;;;;;5012728;28;20226;-84
2022/05/22 12:42:21;;;;;;;2.42;1.25;;;14.00;99.90;;;;;;5012373;28;20565;-84
2022/05/22 12:44:52;;;;;;;1.55;0.80;;;14.00;99.90;;;;;;5013857;28;20194;-84
2022/05/22 12:47:35;;;;;;;3.33;0.80;;;14.00;99.90;;;;;;5010742;28;20249;-84
2022/05/22 12:50:06;;;;;;;1.75;0.73;;;14.00;99.90;;;;;;5009680;28;20198;-84
2022/05/22 12:52:37;;;;;;;1.73;0.90;;;14.00;99.90;;;;;;5012939;28;20310;-83
2022/05/22 12:55:20;;;;;;;1.75;0.82;;;14.00;99.90;;;;;;5012129;28;20279;-84
2022/05/22 12:57:56;;;;;;;2.97;0.80;;;13.90;99.90;;;;;;5013678;28;20195;-84
2022/05/22 13:00:44;;;;;;;4.10;0.85;;;13.90;99.90;;;;;;5009957;28;20195;-84
2022/05/22 13:03:21;;;;;;;2.85;1.00;;;13.90;99.90;;;;;;5009433;28;20203;-84
2022/05/22 13:05:59;;;;;;;1.52;0.90;;;13.90;99.90;;;;;;5010450;28;20198;-84
2022/05/22 13:08:41;;;;;;;2.75;1.00;;;13.90;99.90;;;;;;5012706;28;20199;-85
2022/05/22 13:11:14;;;;;;;1.55;0.75;;;13.90;99.90;;;;;;5006466;28;20274;-84
2022/05/22 13:13:52;;;;;;;1.60;0.90;;;13.90;99.90;;;;;;5011288;28;20577;-83
2022/05/22 13:16:29;;;;;;;1.77;1.08;;;13.90;99.90;;;;;;5012875;28;20194;-84
2022/05/22 13:19:02;;;;;;;2.22;0.90;;;13.80;99.90;;;;;;5008603;28;20616;-84
2022/05/22 13:21:38;;;;;;;3.25;0.85;;;13.80;99.90;;;;;;5007642;28;20205;-84
2022/05/22 13:24:23;;;;;;;1.92;0.90;;;13.80;99.90;;;;;;5009670;28;20253;-84
2022/05/22 13:27:06;;;;;;;2.33;1.08;;;13.80;99.90;;;;;;5013421;28;20187;-83
2022/05/22 13:29:47;;;;;;;2.15;1.23;;;13.80;99.90;;;;;;5007861;28;20264;-84
2022/05/22 13:32:22;;;;;;;3.90;2.30;;;13.80;99.90;;;;;;5008601;28;20257;-84
2022/05/22 13:34:55;;;;;;;4.55;2.45;;;13.70;99.90;;;;;;5010820;28;20760;-84
2022/05/22 13:37:32;;;;;;;4.05;2.58;;;13.70;99.90;;;;;;5008953;28;20231;-84
2022/05/22 13:40:08;;;;;;;6.70;2.83;;;13.70;99.90;;;;;;5009466;28;20193;-84
2022/05/22 13:43:24;;;;;;;5.70;3.13;;;13.70;99.90;;;;;;5012598;28;20257;-84
2022/05/22 13:46:23;;;;;;;5.93;3.00;;;13.70;99.90;;;;;;5010087;28;20191;-83
2022/05/22 13:49:21;;;;;;;3.53;1.95;;;13.70;99.90;;;;;;5011594;28;20187;-83
2022/05/22 13:54:52;;;;;;;2.58;1.30;;;13.70;99.90;;;;;;5009721;28;20221;-83
2022/05/22 13:57:25;;;;;;;2.95;1.75;;;13.70;99.90;;;;;;5008408;28;20199;-84
2022/05/22 14:00:00;;;;;;;4.18;1.90;;;13.70;99.90;;;;;;5015730;22;20342;-79
2022/05/22 14:02:43;;;;;;;3.00;1.90;;;13.70;99.90;;;;;;4980862;28;20195;-78
2022/05/22 14:05:16;;;;;;;4.10;2.10;;;13.70;99.90;;;;;;4990499;28;20222;-79
2022/05/22 14:07:55;;;;;;;4.07;2.00;;;13.70;99.90;;;;;;4988480;28;20710;-79
2022/05/22 14:10:34;;;;;;;3.30;1.70;;;13.60;99.90;;;;;;4986423;28;20196;-78
2022/05/22 14:13:16;;;;;;;5.25;2.05;;;13.60;99.90;;;;;;4989255;28;20613;-79
2022/05/22 14:15:52;;;;;;;3.55;1.95;;;13.60;99.90;;;;;;4991627;28;20254;-79
2022/05/22 14:18:24;;;;;;;4.35;2.10;;;13.60;99.90;;;;;;4992280;28;20669;-79
2022/05/22 14:20:57;;;;;;;3.63;1.95;;;13.60;99.90;;;;;;4987169;28;20246;-78
2022/05/22 14:23:32;;;;;;;2.88;1.90;;;13.60;99.90;;;;;;4991387;28;20211;-78
2022/05/22 14:26:06;;;;;;;3.35;2.17;;;13.60;99.90;;;;;;4991499;28;20708;-79
2022/05/22 14:28:40;;;;;;;4.85;2.05;;;13.60;99.90;;;;;;4982207;28;20670;-78
2022/05/22 14:31:16;;;;;;;3.75;2.00;;;13.60;99.90;;;;;;4986082;28;20206;-79
2022/05/22 14:33:47;;;;;;;4.10;2.10;;;13.60;99.90;;;;;;4986368;28;20220;-79
2022/05/22 14:36:21;;;;;;;2.72;2.00;;;13.60;99.90;;;;;;4985146;28;20200;-79
2022/05/22 14:38:55;;;;;;;2.95;2.05;;;13.60;99.90;;;;;;4983898;28;20188;-79
2022/05/22 14:41:28;;;;;;;2.25;1.98;;;13.50;99.90;;;;;;4981963;28;20192;-78
2022/05/22 14:44:04;;;;;;;2.58;2.00;;;13.60;99.90;;;;;;4988348;28;20286;-79
2022/05/22 14:46:43;;;;;;;3.90;1.98;;;13.60;99.90;;;;;;4987232;28;20199;-79
2022/05/22 14:49:17;;;;;;;4.03;1.98;;;13.60;99.90;;;;;;4989583;28;20192;-80
2022/05/22 14:51:53;;;;;;;4.18;2.05;;;13.60;99.90;;;;;;4979898;28;20199;-79
2022/05/22 14:54:29;;;;;;;2.72;1.73;;;13.50;99.90;;;;;;4977470;28;20222;-79
2022/05/22 14:57:08;;;;;;;3.00;2.10;;;13.50;99.90;;;;;;4991392;28;20203;-78
2022/05/22 14:59:42;;;;;;;2.85;1.90;;;13.50;99.90;;;;;;4980669;28;20322;-79
2022/05/22 15:02:19;;;;;;;2.80;1.75;;;13.50;99.90;;;;;;4973498;28;20204;-78
2022/05/22 15:04:50;;;;;;;3.50;1.90;;;13.50;99.90;;;;;;4974674;28;20192;-79
2022/05/22 15:07:26;;;;;;;3.25;1.75;;;13.50;99.90;;;;;;4982960;28;20680;-78
2022/05/22 15:09:59;;;;;;;4.13;1.90;;;13.50;99.90;;;;;;4975095;28;20196;-79
2022/05/22 15:12:34;;;;;;;5.30;1.80;;;13.50;99.90;;;;;;4981042;28;20254;-79
2022/05/22 15:15:05;;;;;;;2.83;1.77;;;13.50;99.90;;;;;;4981859;28;20683;-78
2022/05/22 15:17:38;;;;;;;2.50;1.85;;;13.50;99.90;;;;;;4968795;28;20211;-78
2022/05/22 15:20:13;;;;;;;3.60;2.00;;;13.50;99.90;;;;;;4975789;28;20601;-77
2022/05/22 15:25:44;;;;;;;8.18;2.40;;;13.50;99.90;;;;;;4970946;28;20330;-78
2022/05/22 15:28:30;;;;;;;3.53;2.30;;;13.50;99.90;;;;;;4976293;28;20671;-78
2022/05/22 15:31:16;;;;;;;6.05;2.25;;;13.60;99.90;;;;;;4979769;28;20262;-78
2022/05/22 15:33:52;;;;;;;6.50;2.20;;;13.60;99.90;;;;;;4978582;28;20226;-79
2022/05/22 15:36:30;;;;;;;3.92;2.00;;;13.60;99.90;;;;;;4987298;28;20191;-79
2022/05/22 15:39:06;;;;;;;5.47;1.90;;;13.60;99.90;;;;;;4982572;28;20203;-79
2022/05/22 15:42:07;;;;;;;3.15;1.77;;;13.60;99.90;;;;;;4985338;28;20191;-79
2022/05/22 15:44:39;;;;;;;4.53;2.10;;;13.60;99.90;;;;;;4976752;28;20666;-78
2022/05/22 15:47:21;;;;;;;5.80;2.00;;;13.60;99.90;;;;;;4987885;28;20188;-78
2022/05/22 15:52:50;;;;;;;2.67;1.90;;;13.50;99.90;;;;;;4984892;28;20195;-78
2022/05/22 15:55:22;;;;;;;3.97;1.83;;;13.50;99.90;;;;;;4974111;28;20220;-79
2022/05/22 15:57:55;;;;;;;3.22;1.80;;;13.50;99.90;;;;;;4989254;28;20184;-79
2022/05/22 16:00:27;;;;;;;2.22;1.60;;;13.50;99.90;;;;;;4978818;28;20235;-78
2022/05/22 16:03:00;;;;;;;2.92;1.60;;;13.60;99.90;;;;;;4989940;28;20223;-78
2022/05/22 16:05:31;;;;;;;1.92;1.60;;;13.60;99.90;;;;;;4993575;28;20204;-79
2022/05/22 16:08:02;;;;;;;3.40;1.63;;;13.60;99.90;;;;;;4989004;28;20207;-79
2022/05/22 16:10:33;;;;;;;3.97;1.88;;;13.60;99.90;;;;;;4984843;28;20236;-80
2022/05/22 16:13:05;;;;;;;3.70;1.70;;;13.60;99.90;;;;;;4984598;28;20551;-78
2022/05/22 16:15:36;;;;;;;3.28;1.65;;;13.60;99.90;;;;;;4983251;28;20220;-80